sensor_id;sensor_type;location;lat;lon;timestamp;temperature;humidity
64226;DHT22;50545;56.064;26.178;2023-09-30T00:01:02;15.90;92.50
64226;DHT22;50545;56.064;26.178;2023-09-30T00:03:30;15.90;92.30
64226;DHT22;50545;56.064;26.178;2023-09-30T00:05:58;15.90;92.20
64226;DHT22;50545;56.064;26.178;2023-09-30T00:08:25;15.90;92.10
64226;DHT22;50545;56.064;26.178;2023-09-30T00:10:52;15.90;92.10
64226;DHT22;50545;56.064;26.178;2023-09-30T00:13:21;15.90;92.00
64226;DHT22;50545;56.064;26.178;2023-09-30T00:15:50;15.90;92.00
64226;DHT22;50545;56.064;26.178;2023-09-30T00:18:17;15.90;92.00
64226;DHT22;50545;56.064;26.178;2023-09-30T00:20:45;15.90;92.00
64226;DHT22;50545;56.064;26.178;2023-09-30T00:23:12;15.90;92.00
64226;DHT22;50545;56.064;26.178;2023-09-30T00:25:40;15.90;91.90
64226;DHT22;50545;56.064;26.178;2023-09-30T00:28:09;15.90;91.90
64226;DHT22;50545;56.064;26.178;2023-09-30T00:30:36;15.90;92.00
64226;DHT22;50545;56.064;26.178;2023-09-30T00:33:05;15.90;92.10
64226;DHT22;50545;56.064;26.178;2023-09-30T00:35:33;15.90;92.10
64226;DHT22;50545;56.064;26.178;2023-09-30T00:38:00;15.80;91.90
64226;DHT22;50545;56.064;26.178;2023-09-30T00:40:28;15.90;92.00
64226;DHT22;50545;56.064;26.178;2023-09-30T00:42:55;15.80;92.10
64226;DHT22;50545;56.064;26.178;2023-09-30T00:45:23;15.80;92.10
64226;DHT22;50545;56.064;26.178;2023-09-30T00:47:50;15.80;92.30
64226;DHT22;50545;56.064;26.178;2023-09-30T00:50:19;15.80;92.30
64226;DHT22;50545;56.064;26.178;2023-09-30T00:52:49;15.80;92.10
64226;DHT22;50545;56.064;26.178;2023-09-30T00:55:17;15.80;92.20
64226;DHT22;50545;56.064;26.178;2023-09-30T00:57:46;15.70;92.20
64226;DHT22;50545;56.064;26.178;2023-09-30T01:00:14;15.70;92.30
64226;DHT22;50545;56.064;26.178;2023-09-30T01:02:43;15.80;92.40
64226;DHT22;50545;56.064;26.178;2023-09-30T01:05:11;15.80;92.10
64226;DHT22;50545;56.064;26.178;2023-09-30T01:07:39;15.80;92.00
64226;DHT22;50545;56.064;26.178;2023-09-30T01:10:07;15.70;92.20
64226;DHT22;50545;56.064;26.178;2023-09-30T01:12:35;15.80;92.10
64226;DHT22;50545;56.064;26.178;2023-09-30T01:15:03;15.70;92.10
64226;DHT22;50545;56.064;26.178;2023-09-30T01:17:34;15.70;92.00
64226;DHT22;50545;56.064;26.178;2023-09-30T01:20:02;15.70;92.40
64226;DHT22;50545;56.064;26.178;2023-09-30T01:22:34;15.70;92.20
64226;DHT22;50545;56.064;26.178;2023-09-30T01:25:01;15.70;92.30
64226;DHT22;50545;56.064;26.178;2023-09-30T01:27:28;15.70;92.30
64226;DHT22;50545;56.064;26.178;2023-09-30T01:29:57;15.70;92.50
64226;DHT22;50545;56.064;26.178;2023-09-30T01:32:25;15.70;92.50
64226;DHT22;50545;56.064;26.178;2023-09-30T01:34:52;15.60;92.70
64226;DHT22;50545;56.064;26.178;2023-09-30T01:37:20;15.60;92.60
64226;DHT22;50545;56.064;26.178;2023-09-30T01:39:47;15.60;92.50
64226;DHT22;50545;56.064;26.178;2023-09-30T01:42:17;15.60;92.60
64226;DHT22;50545;56.064;26.178;2023-09-30T01:44:45;15.60;92.70
64226;DHT22;50545;56.064;26.178;2023-09-30T01:47:12;15.60;92.50
64226;DHT22;50545;56.064;26.178;2023-09-30T01:49:40;15.60;92.80
64226;DHT22;50545;56.064;26.178;2023-09-30T01:52:07;15.60;92.70
64226;DHT22;50545;56.064;26.178;2023-09-30T01:54:35;15.60;92.80
64226;DHT22;50545;56.064;26.178;2023-09-30T01:57:02;15.60;92.60
64226;DHT22;50545;56.064;26.178;2023-09-30T01:59:30;15.60;92.70
64226;DHT22;50545;56.064;26.178;2023-09-30T02:01:57;15.60;92.80
64226;DHT22;50545;56.064;26.178;2023-09-30T02:04:25;15.60;92.70
64226;DHT22;50545;56.064;26.178;2023-09-30T02:06:52;15.70;92.60
64226;DHT22;50545;56.064;26.178;2023-09-30T02:09:19;15.70;92.80
64226;DHT22;50545;56.064;26.178;2023-09-30T02:11:47;15.70;92.80
64226;DHT22;50545;56.064;26.178;2023-09-30T02:14:15;15.70;92.70
64226;DHT22;50545;56.064;26.178;2023-09-30T02:16:42;15.70;92.80
64226;DHT22;50545;56.064;26.178;2023-09-30T02:19:10;15.70;92.70
64226;DHT22;50545;56.064;26.178;2023-09-30T02:21:38;15.70;92.90
64226;DHT22;50545;56.064;26.178;2023-09-30T02:24:06;15.70;92.80
64226;DHT22;50545;56.064;26.178;2023-09-30T02:26:34;15.60;93.00
64226;DHT22;50545;56.064;26.178;2023-09-30T02:29:01;15.60;93.10
64226;DHT22;50545;56.064;26.178;2023-09-30T02:31:29;15.60;93.10
64226;DHT22;50545;56.064;26.178;2023-09-30T02:33:56;15.60;92.90
64226;DHT22;50545;56.064;26.178;2023-09-30T02:36:24;15.60;93.20
64226;DHT22;50545;56.064;26.178;2023-09-30T02:38:52;15.70;93.10
64226;DHT22;50545;56.064;26.178;2023-09-30T02:41:19;15.70;92.90
64226;DHT22;50545;56.064;26.178;2023-09-30T02:43:47;15.70;93.00
64226;DHT22;50545;56.064;26.178;2023-09-30T02:46:14;15.70;93.10
64226;DHT22;50545;56.064;26.178;2023-09-30T02:48:42;15.70;92.90
64226;DHT22;50545;56.064;26.178;2023-09-30T02:51:11;15.70;93.40
64226;DHT22;50545;56.064;26.178;2023-09-30T02:53:39;15.70;93.00
64226;DHT22;50545;56.064;26.178;2023-09-30T02:56:06;15.70;93.00
64226;DHT22;50545;56.064;26.178;2023-09-30T02:58:34;15.80;93.00
64226;DHT22;50545;56.064;26.178;2023-09-30T03:01:01;15.70;93.00
64226;DHT22;50545;56.064;26.178;2023-09-30T03:03:29;15.70;92.90
64226;DHT22;50545;56.064;26.178;2023-09-30T03:05:58;15.70;93.10
64226;DHT22;50545;56.064;26.178;2023-09-30T03:08:25;15.70;93.30
64226;DHT22;50545;56.064;26.178;2023-09-30T03:10:53;15.70;93.30
64226;DHT22;50545;56.064;26.178;2023-09-30T03:13:20;15.70;93.30
64226;DHT22;50545;56.064;26.178;2023-09-30T03:15:49;15.70;93.40
64226;DHT22;50545;56.064;26.178;2023-09-30T03:18:17;15.60;93.50
64226;DHT22;50545;56.064;26.178;2023-09-30T03:20:44;15.60;93.60
64226;DHT22;50545;56.064;26.178;2023-09-30T03:23:12;15.60;93.60
64226;DHT22;50545;56.064;26.178;2023-09-30T03:25:41;15.60;93.60
64226;DHT22;50545;56.064;26.178;2023-09-30T03:28:09;15.60;93.80
64226;DHT22;50545;56.064;26.178;2023-09-30T03:30:36;15.60;93.90
64226;DHT22;50545;56.064;26.178;2023-09-30T03:33:04;15.60;93.80
64226;DHT22;50545;56.064;26.178;2023-09-30T03:35:32;15.60;93.70
64226;DHT22;50545;56.064;26.178;2023-09-30T03:37:59;15.50;93.70
64226;DHT22;50545;56.064;26.178;2023-09-30T03:40:29;15.60;93.60
64226;DHT22;50545;56.064;26.178;2023-09-30T03:43:01;15.60;93.60
64226;DHT22;50545;56.064;26.178;2023-09-30T03:45:28;15.60;93.90
64226;DHT22;50545;56.064;26.178;2023-09-30T03:47:56;15.60;93.80
64226;DHT22;50545;56.064;26.178;2023-09-30T03:50:24;15.60;94.00
64226;DHT22;50545;56.064;26.178;2023-09-30T03:52:52;15.60;93.90
64226;DHT22;50545;56.064;26.178;2023-09-30T03:55:27;15.60;94.10
64226;DHT22;50545;56.064;26.178;2023-09-30T03:57:57;15.60;94.00
64226;DHT22;50545;56.064;26.178;2023-09-30T04:00:24;15.60;93.90
64226;DHT22;50545;56.064;26.178;2023-09-30T04:02:52;15.50;94.00
64226;DHT22;50545;56.064;26.178;2023-09-30T04:05:26;15.60;94.00
64226;DHT22;50545;56.064;26.178;2023-09-30T04:07:57;15.60;93.90
64226;DHT22;50545;56.064;26.178;2023-09-30T04:10:25;15.60;93.80
64226;DHT22;50545;56.064;26.178;2023-09-30T04:12:52;15.60;93.80
64226;DHT22;50545;56.064;26.178;2023-09-30T04:15:20;15.60;94.10
64226;DHT22;50545;56.064;26.178;2023-09-30T04:17:48;15.60;94.00
64226;DHT22;50545;56.064;26.178;2023-09-30T04:20:16;15.60;94.20
64226;DHT22;50545;56.064;26.178;2023-09-30T04:22:48;15.60;94.10
64226;DHT22;50545;56.064;26.178;2023-09-30T04:25:16;15.60;94.50
64226;DHT22;50545;56.064;26.178;2023-09-30T04:27:46;15.60;94.20
64226;DHT22;50545;56.064;26.178;2023-09-30T04:30:17;15.60;94.40
64226;DHT22;50545;56.064;26.178;2023-09-30T04:32:45;15.60;94.20
64226;DHT22;50545;56.064;26.178;2023-09-30T04:35:13;15.60;94.40
64226;DHT22;50545;56.064;26.178;2023-09-30T04:37:40;15.60;94.50
64226;DHT22;50545;56.064;26.178;2023-09-30T04:40:09;15.60;94.40
64226;DHT22;50545;56.064;26.178;2023-09-30T04:42:48;15.60;94.60
64226;DHT22;50545;56.064;26.178;2023-09-30T04:45:15;15.60;94.60
64226;DHT22;50545;56.064;26.178;2023-09-30T04:47:54;15.60;94.60
64226;DHT22;50545;56.064;26.178;2023-09-30T04:50:24;15.60;94.90
64226;DHT22;50545;56.064;26.178;2023-09-30T04:52:52;15.60;94.70
64226;DHT22;50545;56.064;26.178;2023-09-30T04:55:20;15.60;94.90
64226;DHT22;50545;56.064;26.178;2023-09-30T04:57:48;15.60;95.00
64226;DHT22;50545;56.064;26.178;2023-09-30T05:00:18;15.60;95.10
64226;DHT22;50545;56.064;26.178;2023-09-30T05:02:46;15.60;95.20
64226;DHT22;50545;56.064;26.178;2023-09-30T05:05:14;15.60;95.40
64226;DHT22;50545;56.064;26.178;2023-09-30T05:07:42;15.60;95.20
64226;DHT22;50545;56.064;26.178;2023-09-30T05:10:10;15.70;95.50
64226;DHT22;50545;56.064;26.178;2023-09-30T05:12:41;15.70;95.40
64226;DHT22;50545;56.064;26.178;2023-09-30T05:15:15;15.80;95.30
64226;DHT22;50545;56.064;26.178;2023-09-30T05:17:44;15.80;95.40
64226;DHT22;50545;56.064;26.178;2023-09-30T05:20:13;15.90;95.40
64226;DHT22;50545;56.064;26.178;2023-09-30T05:22:41;15.90;95.20
64226;DHT22;50545;56.064;26.178;2023-09-30T05:25:13;15.90;95.10
64226;DHT22;50545;56.064;26.178;2023-09-30T05:27:44;16.00;95.00
64226;DHT22;50545;56.064;26.178;2023-09-30T05:30:12;16.00;95.30
64226;DHT22;50545;56.064;26.178;2023-09-30T05:32:42;16.10;94.70
64226;DHT22;50545;56.064;26.178;2023-09-30T05:35:10;16.10;94.90
64226;DHT22;50545;56.064;26.178;2023-09-30T05:37:41;16.10;94.90
64226;DHT22;50545;56.064;26.178;2023-09-30T05:40:09;16.10;95.00
64226;DHT22;50545;56.064;26.178;2023-09-30T05:42:55;16.10;95.00
64226;DHT22;50545;56.064;26.178;2023-09-30T05:45:27;16.10;95.10
64226;DHT22;50545;56.064;26.178;2023-09-30T05:47:55;16.10;95.50
64226;DHT22;50545;56.064;26.178;2023-09-30T05:50:24;16.00;95.30
64226;DHT22;50545;56.064;26.178;2023-09-30T05:52:55;16.00;95.50
64226;DHT22;50545;56.064;26.178;2023-09-30T05:55:23;16.00;95.90
64226;DHT22;50545;56.064;26.178;2023-09-30T05:57:53;16.00;95.80
64226;DHT22;50545;56.064;26.178;2023-09-30T06:00:22;16.00;95.70
64226;DHT22;50545;56.064;26.178;2023-09-30T06:03:01;15.90;95.60
64226;DHT22;50545;56.064;26.178;2023-09-30T06:05:33;16.00;95.60
64226;DHT22;50545;56.064;26.178;2023-09-30T06:08:03;16.00;95.70
64226;DHT22;50545;56.064;26.178;2023-09-30T06:10:31;16.00;95.60
64226;DHT22;50545;56.064;26.178;2023-09-30T06:12:59;16.00;96.00
64226;DHT22;50545;56.064;26.178;2023-09-30T06:15:27;16.00;95.80
64226;DHT22;50545;56.064;26.178;2023-09-30T06:17:56;16.10;95.70
64226;DHT22;50545;56.064;26.178;2023-09-30T06:20:24;16.10;95.70
64226;DHT22;50545;56.064;26.178;2023-09-30T06:22:54;16.10;95.60
64226;DHT22;50545;56.064;26.178;2023-09-30T06:25:23;16.10;95.80
64226;DHT22;50545;56.064;26.178;2023-09-30T06:27:54;16.10;95.80
64226;DHT22;50545;56.064;26.178;2023-09-30T06:30:23;16.10;95.70
64226;DHT22;50545;56.064;26.178;2023-09-30T06:32:58;16.10;95.80
64226;DHT22;50545;56.064;26.178;2023-09-30T06:35:28;16.10;95.80
64226;DHT22;50545;56.064;26.178;2023-09-30T06:37:57;16.20;96.00
64226;DHT22;50545;56.064;26.178;2023-09-30T06:40:25;16.10;96.10
64226;DHT22;50545;56.064;26.178;2023-09-30T06:42:53;16.20;96.00
64226;DHT22;50545;56.064;26.178;2023-09-30T06:45:20;16.20;96.00
64226;DHT22;50545;56.064;26.178;2023-09-30T06:47:49;16.20;96.20
64226;DHT22;50545;56.064;26.178;2023-09-30T06:50:16;16.30;96.20
64226;DHT22;50545;56.064;26.178;2023-09-30T06:52:44;16.30;96.00
64226;DHT22;50545;56.064;26.178;2023-09-30T06:55:17;16.40;96.30
64226;DHT22;50545;56.064;26.178;2023-09-30T06:57:44;16.50;96.30
64226;DHT22;50545;56.064;26.178;2023-09-30T07:00:13;16.50;96.20
64226;DHT22;50545;56.064;26.178;2023-09-30T07:02:41;16.60;96.50
64226;DHT22;50545;56.064;26.178;2023-09-30T07:05:14;16.50;96.60
64226;DHT22;50545;56.064;26.178;2023-09-30T07:07:42;16.60;96.70
64226;DHT22;50545;56.064;26.178;2023-09-30T07:10:12;16.60;97.00
64226;DHT22;50545;56.064;26.178;2023-09-30T07:12:41;16.60;96.90
64226;DHT22;50545;56.064;26.178;2023-09-30T07:15:09;16.60;97.00
64226;DHT22;50545;56.064;26.178;2023-09-30T07:17:37;16.60;97.30
64226;DHT22;50545;56.064;26.178;2023-09-30T07:20:06;16.60;97.50
64226;DHT22;50545;56.064;26.178;2023-09-30T07:22:34;16.60;97.50
64226;DHT22;50545;56.064;26.178;2023-09-30T07:25:21;16.60;97.50
64226;DHT22;50545;56.064;26.178;2023-09-30T07:27:49;16.60;97.70
64226;DHT22;50545;56.064;26.178;2023-09-30T07:30:18;16.60;97.80
64226;DHT22;50545;56.064;26.178;2023-09-30T07:32:46;16.60;97.90
64226;DHT22;50545;56.064;26.178;2023-09-30T07:35:14;16.60;98.00
64226;DHT22;50545;56.064;26.178;2023-09-30T07:37:43;16.60;98.20
64226;DHT22;50545;56.064;26.178;2023-09-30T07:40:11;16.60;98.30
64226;DHT22;50545;56.064;26.178;2023-09-30T07:42:39;16.60;98.40
64226;DHT22;50545;56.064;26.178;2023-09-30T07:45:08;16.60;98.40
64226;DHT22;50545;56.064;26.178;2023-09-30T07:47:36;16.60;98.40
64226;DHT22;50545;56.064;26.178;2023-09-30T07:50:04;16.60;98.30
64226;DHT22;50545;56.064;26.178;2023-09-30T07:52:38;16.60;98.40
64226;DHT22;50545;56.064;26.178;2023-09-30T07:55:10;16.50;98.40
64226;DHT22;50545;56.064;26.178;2023-09-30T07:57:40;16.50;98.50
64226;DHT22;50545;56.064;26.178;2023-09-30T08:00:10;16.50;98.40
64226;DHT22;50545;56.064;26.178;2023-09-30T08:02:43;16.40;98.50
64226;DHT22;50545;56.064;26.178;2023-09-30T08:05:12;16.40;98.90
64226;DHT22;50545;56.064;26.178;2023-09-30T08:07:40;16.40;98.90
64226;DHT22;50545;56.064;26.178;2023-09-30T08:10:09;16.40;99.50
64226;DHT22;50545;56.064;26.178;2023-09-30T08:12:41;16.30;99.90
64226;DHT22;50545;56.064;26.178;2023-09-30T08:15:09;16.20;99.90
64226;DHT22;50545;56.064;26.178;2023-09-30T08:17:39;16.20;99.90
64226;DHT22;50545;56.064;26.178;2023-09-30T08:20:07;16.30;99.90
64226;DHT22;50545;56.064;26.178;2023-09-30T08:22:39;16.30;99.90
64226;DHT22;50545;56.064;26.178;2023-09-30T08:25:08;16.30;99.90
64226;DHT22;50545;56.064;26.178;2023-09-30T08:27:37;16.30;99.90
64226;DHT22;50545;56.064;26.178;2023-09-30T08:30:06;16.30;99.90
64226;DHT22;50545;56.064;26.178;2023-09-30T08:32:37;16.20;99.90
64226;DHT22;50545;56.064;26.178;2023-09-30T08:35:05;16.10;99.90
64226;DHT22;50545;56.064;26.178;2023-09-30T08:37:34;16.10;99.90
64226;DHT22;50545;56.064;26.178;2023-09-30T08:40:01;16.00;99.90
64226;DHT22;50545;56.064;26.178;2023-09-30T08:42:33;16.00;99.90
64226;DHT22;50545;56.064;26.178;2023-09-30T08:45:04;16.00;99.90
64226;DHT22;50545;56.064;26.178;2023-09-30T08:47:35;16.00;99.90
64226;DHT22;50545;56.064;26.178;2023-09-30T08:50:04;16.00;99.90
64226;DHT22;50545;56.064;26.178;2023-09-30T08:52:34;16.00;99.90
64226;DHT22;50545;56.064;26.178;2023-09-30T08:55:10;16.10;99.90
64226;DHT22;50545;56.064;26.178;2023-09-30T08:57:40;16.10;99.90
64226;DHT22;50545;56.064;26.178;2023-09-30T09:00:12;16.10;99.90
64226;DHT22;50545;56.064;26.178;2023-09-30T09:02:41;16.20;99.90
64226;DHT22;50545;56.064;26.178;2023-09-30T09:05:10;16.20;99.90
64226;DHT22;50545;56.064;26.178;2023-09-30T09:07:39;16.30;99.90
64226;DHT22;50545;56.064;26.178;2023-09-30T09:12:37;16.50;99.90
64226;DHT22;50545;56.064;26.178;2023-09-30T09:15:07;16.50;99.90
64226;DHT22;50545;56.064;26.178;2023-09-30T09:17:43;16.60;99.90
64226;DHT22;50545;56.064;26.178;2023-09-30T09:20:19;16.70;99.90
64226;DHT22;50545;56.064;26.178;2023-09-30T09:22:51;16.70;99.90
64226;DHT22;50545;56.064;26.178;2023-09-30T09:25:21;16.70;99.60
64226;DHT22;50545;56.064;26.178;2023-09-30T09:27:52;16.70;99.50
64226;DHT22;50545;56.064;26.178;2023-09-30T09:30:26;16.60;99.50
64226;DHT22;50545;56.064;26.178;2023-09-30T09:33:02;16.50;99.90
64226;DHT22;50545;56.064;26.178;2023-09-30T09:35:31;16.40;99.80
64226;DHT22;50545;56.064;26.178;2023-09-30T09:40:30;16.40;99.90
64226;DHT22;50545;56.064;26.178;2023-09-30T09:43:00;16.40;99.90
64226;DHT22;50545;56.064;26.178;2023-09-30T09:45:29;16.40;99.90
64226;DHT22;50545;56.064;26.178;2023-09-30T09:48:00;16.50;99.90
64226;DHT22;50545;56.064;26.178;2023-09-30T09:50:28;16.60;99.90
64226;DHT22;50545;56.064;26.178;2023-09-30T09:52:55;16.80;99.90
64226;DHT22;50545;56.064;26.178;2023-09-30T09:55:24;16.90;99.90
64226;DHT22;50545;56.064;26.178;2023-09-30T09:57:52;17.10;99.90
64226;DHT22;50545;56.064;26.178;2023-09-30T10:00:24;17.20;99.90
64226;DHT22;50545;56.064;26.178;2023-09-30T10:02:52;17.30;99.90
64226;DHT22;50545;56.064;26.178;2023-09-30T10:05:21;17.40;99.90
64226;DHT22;50545;56.064;26.178;2023-09-30T10:08:08;17.50;99.60
64226;DHT22;50545;56.064;26.178;2023-09-30T10:10:37;17.60;99.00
64226;DHT22;50545;56.064;26.178;2023-09-30T10:13:06;17.60;98.70
64226;DHT22;50545;56.064;26.178;2023-09-30T10:15:34;17.60;99.00
64226;DHT22;50545;56.064;26.178;2023-09-30T10:18:10;17.70;98.80
64226;DHT22;50545;56.064;26.178;2023-09-30T10:20:43;17.70;98.40
64226;DHT22;50545;56.064;26.178;2023-09-30T10:23:21;17.80;98.60
64226;DHT22;50545;56.064;26.178;2023-09-30T10:25:50;17.80;98.40
64226;DHT22;50545;56.064;26.178;2023-09-30T10:28:41;17.80;98.60
64226;DHT22;50545;56.064;26.178;2023-09-30T10:31:10;17.80;98.60
64226;DHT22;50545;56.064;26.178;2023-09-30T10:36:33;18.10;98.80
64226;DHT22;50545;56.064;26.178;2023-09-30T10:39:01;18.20;98.40
64226;DHT22;50545;56.064;26.178;2023-09-30T10:46:58;18.60;97.70
64226;DHT22;50545;56.064;26.178;2023-09-30T10:51:57;18.80;97.70
64226;DHT22;50545;56.064;26.178;2023-09-30T10:54:29;18.90;97.40
64226;DHT22;50545;56.064;26.178;2023-09-30T10:56:58;18.90;97.20
64226;DHT22;50545;56.064;26.178;2023-09-30T10:59:28;19.00;97.20
64226;DHT22;50545;56.064;26.178;2023-09-30T11:01:57;19.20;96.90
64226;DHT22;50545;56.064;26.178;2023-09-30T11:04:26;19.30;96.90
64226;DHT22;50545;56.064;26.178;2023-09-30T11:06:56;19.30;96.60
64226;DHT22;50545;56.064;26.178;2023-09-30T11:09:24;19.40;96.90
64226;DHT22;50545;56.064;26.178;2023-09-30T11:11:53;19.50;96.90
64226;DHT22;50545;56.064;26.178;2023-09-30T11:14:29;19.60;96.70
64226;DHT22;50545;56.064;26.178;2023-09-30T11:17:01;19.60;96.30
64226;DHT22;50545;56.064;26.178;2023-09-30T11:19:57;19.70;96.60
64226;DHT22;50545;56.064;26.178;2023-09-30T11:22:23;19.70;95.90
64226;DHT22;50545;56.064;26.178;2023-09-30T11:24:50;19.70;96.20
64226;DHT22;50545;56.064;26.178;2023-09-30T11:27:24;19.70;96.40
64226;DHT22;50545;56.064;26.178;2023-09-30T11:29:52;19.70;96.30
64226;DHT22;50545;56.064;26.178;2023-09-30T11:32:28;19.80;96.50
64226;DHT22;50545;56.064;26.178;2023-09-30T11:34:56;19.80;96.40
64226;DHT22;50545;56.064;26.178;2023-09-30T11:37:30;19.70;96.20
64226;DHT22;50545;56.064;26.178;2023-09-30T11:40:12;19.60;96.40
64226;DHT22;50545;56.064;26.178;2023-09-30T11:42:41;19.60;96.80
64226;DHT22;50545;56.064;26.178;2023-09-30T11:45:21;19.50;96.70
64226;DHT22;50545;56.064;26.178;2023-09-30T11:47:52;19.40;97.20
64226;DHT22;50545;56.064;26.178;2023-09-30T11:50:20;19.40;96.80
64226;DHT22;50545;56.064;26.178;2023-09-30T11:52:47;19.40;96.90
64226;DHT22;50545;56.064;26.178;2023-09-30T11:55:15;19.30;97.10
64226;DHT22;50545;56.064;26.178;2023-09-30T11:57:43;19.30;97.50
64226;DHT22;50545;56.064;26.178;2023-09-30T12:00:11;19.20;97.30
64226;DHT22;50545;56.064;26.178;2023-09-30T12:02:41;19.20;97.50
64226;DHT22;50545;56.064;26.178;2023-09-30T12:05:09;19.10;97.80
64226;DHT22;50545;56.064;26.178;2023-09-30T12:07:38;19.10;97.80
64226;DHT22;50545;56.064;26.178;2023-09-30T12:10:09;18.90;97.80
64226;DHT22;50545;56.064;26.178;2023-09-30T12:12:36;18.90;98.10
64226;DHT22;50545;56.064;26.178;2023-09-30T12:15:06;18.80;98.40
64226;DHT22;50545;56.064;26.178;2023-09-30T12:17:36;18.80;98.60
64226;DHT22;50545;56.064;26.178;2023-09-30T12:20:06;18.90;98.70
64226;DHT22;50545;56.064;26.178;2023-09-30T12:22:34;18.80;98.60
64226;DHT22;50545;56.064;26.178;2023-09-30T12:25:01;18.70;98.60
64226;DHT22;50545;56.064;26.178;2023-09-30T12:27:28;18.70;99.00
64226;DHT22;50545;56.064;26.178;2023-09-30T12:29:56;18.60;99.20
64226;DHT22;50545;56.064;26.178;2023-09-30T12:32:23;18.60;99.00
64226;DHT22;50545;56.064;26.178;2023-09-30T12:34:51;18.70;99.40
64226;DHT22;50545;56.064;26.178;2023-09-30T12:37:18;18.70;99.10
64226;DHT22;50545;56.064;26.178;2023-09-30T12:39:46;18.70;99.20
64226;DHT22;50545;56.064;26.178;2023-09-30T12:42:13;18.80;99.30
64226;DHT22;50545;56.064;26.178;2023-09-30T12:44:41;18.80;99.40
64226;DHT22;50545;56.064;26.178;2023-09-30T12:47:09;18.80;99.30
64226;DHT22;50545;56.064;26.178;2023-09-30T12:49:36;18.80;99.10
64226;DHT22;50545;56.064;26.178;2023-09-30T12:52:04;18.80;99.30
64226;DHT22;50545;56.064;26.178;2023-09-30T12:54:32;18.70;99.30
64226;DHT22;50545;56.064;26.178;2023-09-30T12:56:59;18.60;99.40
64226;DHT22;50545;56.064;26.178;2023-09-30T12:59:27;18.50;99.50
64226;DHT22;50545;56.064;26.178;2023-09-30T13:01:55;18.40;99.90
64226;DHT22;50545;56.064;26.178;2023-09-30T13:04:23;18.30;99.90
64226;DHT22;50545;56.064;26.178;2023-09-30T13:06:52;18.10;99.90
64226;DHT22;50545;56.064;26.178;2023-09-30T13:09:20;17.80;99.90
64226;DHT22;50545;56.064;26.178;2023-09-30T13:11:48;17.50;99.90
64226;DHT22;50545;56.064;26.178;2023-09-30T13:14:16;17.30;99.90
64226;DHT22;50545;56.064;26.178;2023-09-30T13:16:44;17.20;99.90
64226;DHT22;50545;56.064;26.178;2023-09-30T13:19:11;17.00;99.90
64226;DHT22;50545;56.064;26.178;2023-09-30T13:21:39;16.90;99.90
64226;DHT22;50545;56.064;26.178;2023-09-30T13:24:08;16.90;99.90
64226;DHT22;50545;56.064;26.178;2023-09-30T13:26:37;16.80;99.90
64226;DHT22;50545;56.064;26.178;2023-09-30T13:29:04;16.70;99.90
64226;DHT22;50545;56.064;26.178;2023-09-30T13:31:32;16.70;99.90
64226;DHT22;50545;56.064;26.178;2023-09-30T13:34:00;16.70;99.90
64226;DHT22;50545;56.064;26.178;2023-09-30T13:36:27;16.60;99.90
64226;DHT22;50545;56.064;26.178;2023-09-30T13:38:55;16.60;99.90
64226;DHT22;50545;56.064;26.178;2023-09-30T13:41:24;16.60;99.90
64226;DHT22;50545;56.064;26.178;2023-09-30T13:43:51;16.60;99.90
64226;DHT22;50545;56.064;26.178;2023-09-30T13:46:19;16.60;99.90
64226;DHT22;50545;56.064;26.178;2023-09-30T13:48:50;16.60;99.90
64226;DHT22;50545;56.064;26.178;2023-09-30T13:51:19;16.60;99.90
64226;DHT22;50545;56.064;26.178;2023-09-30T13:53:47;16.60;99.90
64226;DHT22;50545;56.064;26.178;2023-09-30T13:56:14;16.60;99.90
64226;DHT22;50545;56.064;26.178;2023-09-30T13:58:42;16.60;99.90
64226;DHT22;50545;56.064;26.178;2023-09-30T14:01:09;16.60;99.90
64226;DHT22;50545;56.064;26.178;2023-09-30T14:03:38;16.50;99.90
64226;DHT22;50545;56.064;26.178;2023-09-30T14:06:11;16.50;99.90
64226;DHT22;50545;56.064;26.178;2023-09-30T14:08:42;16.50;99.90
64226;DHT22;50545;56.064;26.178;2023-09-30T14:11:09;16.50;99.90
64226;DHT22;50545;56.064;26.178;2023-09-30T14:13:38;16.50;99.90
64226;DHT22;50545;56.064;26.178;2023-09-30T14:16:09;16.50;99.90
64226;DHT22;50545;56.064;26.178;2023-09-30T14:18:37;16.60;99.90
64226;DHT22;50545;56.064;26.178;2023-09-30T14:21:06;16.50;99.90
64226;DHT22;50545;56.064;26.178;2023-09-30T14:23:34;16.60;99.90
64226;DHT22;50545;56.064;26.178;2023-09-30T14:26:04;16.60;99.90
64226;DHT22;50545;56.064;26.178;2023-09-30T14:28:38;16.60;99.90
64226;DHT22;50545;56.064;26.178;2023-09-30T14:31:05;16.60;99.90
64226;DHT22;50545;56.064;26.178;2023-09-30T14:33:33;16.70;99.90
64226;DHT22;50545;56.064;26.178;2023-09-30T14:36:03;16.70;99.90
64226;DHT22;50545;56.064;26.178;2023-09-30T14:38:33;16.70;99.50
64226;DHT22;50545;56.064;26.178;2023-09-30T14:41:01;16.70;99.00
64226;DHT22;50545;56.064;26.178;2023-09-30T14:43:28;16.70;97.70
64226;DHT22;50545;56.064;26.178;2023-09-30T14:45:56;16.70;98.30
64226;DHT22;50545;56.064;26.178;2023-09-30T14:48:24;16.70;97.40
64226;DHT22;50545;56.064;26.178;2023-09-30T14:50:52;16.70;97.00
64226;DHT22;50545;56.064;26.178;2023-09-30T14:53:19;16.60;97.10
64226;DHT22;50545;56.064;26.178;2023-09-30T14:55:47;16.60;97.00
64226;DHT22;50545;56.064;26.178;2023-09-30T14:58:14;16.60;96.70
64226;DHT22;50545;56.064;26.178;2023-09-30T15:00:42;16.50;96.10
64226;DHT22;50545;56.064;26.178;2023-09-30T15:03:09;16.50;96.20
64226;DHT22;50545;56.064;26.178;2023-09-30T15:05:38;16.50;95.90
64226;DHT22;50545;56.064;26.178;2023-09-30T15:08:05;16.50;95.80
64226;DHT22;50545;56.064;26.178;2023-09-30T15:10:36;16.40;94.40
64226;DHT22;50545;56.064;26.178;2023-09-30T15:13:03;16.30;94.10
64226;DHT22;50545;56.064;26.178;2023-09-30T15:15:36;16.20;93.40
64226;DHT22;50545;56.064;26.178;2023-09-30T15:18:04;16.10;92.80
64226;DHT22;50545;56.064;26.178;2023-09-30T15:20:38;16.00;92.40
64226;DHT22;50545;56.064;26.178;2023-09-30T15:23:06;15.90;92.80
64226;DHT22;50545;56.064;26.178;2023-09-30T15:25:34;15.80;92.70
64226;DHT22;50545;56.064;26.178;2023-09-30T15:28:01;15.70;93.10
64226;DHT22;50545;56.064;26.178;2023-09-30T15:30:28;15.60;92.50
64226;DHT22;50545;56.064;26.178;2023-09-30T15:32:56;15.50;92.30
64226;DHT22;50545;56.064;26.178;2023-09-30T15:35:24;15.50;92.40
64226;DHT22;50545;56.064;26.178;2023-09-30T15:37:54;15.40;93.20
64226;DHT22;50545;56.064;26.178;2023-09-30T15:40:21;15.30;93.10
64226;DHT22;50545;56.064;26.178;2023-09-30T15:42:49;15.20;93.40